Gattman, MS

7:54 PM CDT on July 24, 2017 (GMT -0500)
Vernon Alabama | | Change Station

Elev 372 ft 33.79 °N, 88.21 °W | Updated 3 minutes ago

Partly Cloudy
Partly Cloudy
75.1 °F
Feels Like 74 °F
N
0.0
Wind Variable Wind from SSE
Gusts 7.0 mph

Today
High -- | Low -- °F
--% Chance of Precip.
Yesterday
High -- | Low -- °F
Precip. -- in
Pressure 30.04 in
Visibility 4.0 miles
Clouds Few 2500 ft
Mostly Cloudy 3900 ft
Mostly Cloudy 4800 ft
Mostly Cloudy 5500 ft
Heat Index 74 °F
Dew Point 72 °F
Humidity 90%
Rainfall 0.30 in
Snow Depth Not available.
5:59 AM 7:59 PM
Waxing Crescent, 4% visible
SPECI KCBM 250051Z AUTO 08010G19KT 4SM R31C/5000FT -RA FEW025 BKN039 BKN048 BKN055 26/22 A3004 RMK AO2 WSHFT 47 RAB47 PRESRR SLP173 TSNO $
Pressure 30.04 in
Visibility 4.0 miles
Clouds Few 2500 ft
Mostly Cloudy 3900 ft
Mostly Cloudy 4800 ft
Mostly Cloudy 5500 ft
Heat Index 74 °F
Dew Point 72 °F
Humidity 90%
Rainfall 0.30 in
Snow Depth Not available.
5:59 AM 7:59 PM
Waxing Crescent, 4% visible
SPECI KCBM 250051Z AUTO 08010G19KT 4SM R31C/5000FT -RA FEW025 BKN039 BKN048 BKN055 26/22 A3004 RMK AO2 WSHFT 47 RAB47 PRESRR SLP173 TSNO $

Get Severe Weather Alerts

Thanks for signing up!

Be on the lookout for a verification email in your inbox.

You'll start receiving the daily forecast at 6 AM.

×

10-Day Weather Forecast

Almanac

Astronomy

Jul. 24, 2017 Rise Set
Actual Time
Civil Twilight
Nautical Twilight
Astronomical Twilight
Moon
Length of Visible Light
Length of Day
Tomorrow will be .
, % of the Moon is Illuminated

Today's Extremes

State Highs State Lows

Community

WunderPhotos

Category 6

Welcome to Category 6. This is the collective home for Weather Underground's featured writeups by Dr. Jeff Masters (right), Bob Henson (left), Chris Burt, and other regular contributors.

Nearby

Air Quality

  Air Quality AQ Index Pollutant
Not available.

Snow Depth

Station Depth Elevation

Earthquake Activity

City Distance Mag. Time & Date
Minimum magnitude displayed is 2.5.

Coastal Water Temperatures

Place Temperature

Stations

Nearby Weather Stations

Station Location Temp. Windchill Dew Point Humidity Wind Precip. Elev Updated Type
                   

Watches & Warnings

There are currently no watches in effect.